Time;durP1;ratioP1;P1;durP2;ratioP2;P2;SDS_P1;SDS_P2;PMS_P1;PMS_P2;Temp;Humidity;BMP_temperature;BMP_pressure;BME280_temperature;BME280_humidity;BME280_pressure;Samples;Min_cycle;Max_cycle;Signal;HPM_P1;HPM_P2
2022/01/05 00:00:39;;;;;;;8.53;3.77;;;6.80;99.90;;;;;;5073452;28;20453;-48
2022/01/05 00:03:05;;;;;;;5.63;3.60;;;6.80;99.90;;;;;;5073581;28;20448;-47
2022/01/05 00:05:32;;;;;;;8.80;4.13;;;6.80;99.90;;;;;;5073562;28;20429;-48
2022/01/05 00:08:00;;;;;;;4.47;3.40;;;6.80;99.90;;;;;;5073059;28;20440;-48
2022/01/05 00:10:27;;;;;;;4.97;3.77;;;6.80;99.90;;;;;;5073451;28;20502;-48
2022/01/05 00:12:53;;;;;;;8.93;3.60;;;6.70;99.90;;;;;;5073333;28;20461;-48
2022/01/05 00:15:20;;;;;;;5.37;3.43;;;6.70;99.90;;;;;;5072911;28;20757;-48
2022/01/05 00:17:47;;;;;;;8.80;3.50;;;6.70;99.90;;;;;;5072906;28;20418;-47
2022/01/05 00:20:14;;;;;;;6.20;3.40;;;6.70;99.90;;;;;;5073161;28;20990;-48
2022/01/05 00:22:40;;;;;;;8.80;3.87;;;6.70;99.90;;;;;;5072926;28;20484;-47
2022/01/05 00:25:09;;;;;;;5.30;3.70;;;6.70;99.90;;;;;;5072953;28;20411;-47
2022/01/05 00:27:36;;;;;;;5.40;3.10;;;6.70;99.90;;;;;;5054921;28;20431;-47
2022/01/05 00:30:03;;;;;;;7.93;4.03;;;6.70;99.90;;;;;;5054643;28;20788;-47
2022/01/05 00:32:30;;;;;;;7.83;3.80;;;6.70;99.90;;;;;;5072670;28;20455;-47
2022/01/05 00:34:56;;;;;;;4.90;2.80;;;6.70;99.90;;;;;;5072889;28;20899;-47
2022/01/05 00:37:23;;;;;;;4.20;3.43;;;6.70;99.90;;;;;;5054696;28;20449;-47
2022/01/05 00:39:50;;;;;;;7.03;3.47;;;6.70;99.90;;;;;;5072462;28;20906;-47
2022/01/05 00:42:18;;;;;;;4.00;2.90;;;6.70;99.90;;;;;;5072644;28;20922;-47
2022/01/05 00:44:45;;;;;;;3.97;2.70;;;6.70;99.90;;;;;;5072615;28;20452;-47
2022/01/05 00:47:11;;;;;;;9.60;2.90;;;6.60;99.90;;;;;;5072527;28;20443;-47
2022/01/05 00:49:38;;;;;;;6.80;3.00;;;6.60;99.90;;;;;;5072754;28;20879;-47
2022/01/05 00:52:05;;;;;;;7.60;2.80;;;6.60;99.90;;;;;;5072610;28;20430;-46
2022/01/05 00:54:32;;;;;;;6.33;3.27;;;6.60;99.90;;;;;;5072366;28;20793;-47
2022/01/05 00:56:58;;;;;;;7.20;3.00;;;6.60;99.90;;;;;;5072505;28;20435;-47
2022/01/05 00:59:26;;;;;;;7.60;2.70;;;6.60;99.90;;;;;;5071963;28;20541;-47
2022/01/05 01:01:53;;;;;;;13.43;3.30;;;6.60;99.90;;;;;;5072779;28;20436;-47
2022/01/05 01:04:20;;;;;;;7.90;2.80;;;6.60;99.90;;;;;;5072546;28;20452;-47
2022/01/05 01:06:46;;;;;;;7.60;2.50;;;6.60;99.90;;;;;;5072676;28;20768;-47
2022/01/05 01:09:13;;;;;;;7.20;2.67;;;6.50;99.90;;;;;;5071688;28;20441;-47
2022/01/05 01:11:40;;;;;;;9.70;2.70;;;6.50;99.90;;;;;;5072454;28;20471;-47
2022/01/05 01:14:06;;;;;;;6.40;2.70;;;6.50;99.90;;;;;;5072080;28;20436;-47
2022/01/05 01:16:34;;;;;;;8.17;2.93;;;6.50;99.90;;;;;;5072153;28;20435;-48
2022/01/05 01:19:01;;;;;;;8.90;2.60;;;6.50;99.90;;;;;;5071291;28;20560;-48
2022/01/05 01:21:28;;;;;;;6.23;2.33;;;6.60;99.90;;;;;;5071859;28;20402;-47
2022/01/05 01:23:55;;;;;;;6.00;2.30;;;6.60;99.90;;;;;;5075003;28;20460;-47
2022/01/05 01:26:23;;;;;;;2.90;1.80;;;6.60;99.90;;;;;;5072021;28;20451;-47
2022/01/05 01:28:50;;;;;;;4.67;2.13;;;6.60;99.90;;;;;;5070961;28;20502;-46
2022/01/05 01:31:17;;;;;;;5.00;2.70;;;6.70;99.90;;;;;;5071695;28;20432;-47
2022/01/05 01:33:45;;;;;;;10.93;2.50;;;6.70;99.90;;;;;;5071655;28;20472;-47
2022/01/05 01:36:12;;;;;;;4.90;2.17;;;6.80;99.90;;;;;;5071764;28;20437;-48
2022/01/05 01:38:38;;;;;;;11.60;3.20;;;6.80;99.90;;;;;;5071258;28;20444;-47
2022/01/05 01:41:05;;;;;;;6.57;2.10;;;6.80;99.90;;;;;;5071659;28;20415;-47
2022/01/05 01:43:32;;;;;;;7.40;2.60;;;6.80;99.90;;;;;;5071505;28;20437;-48
2022/01/05 01:46:00;;;;;;;5.40;2.10;;;6.80;99.90;;;;;;5071413;28;20407;-47
2022/01/05 01:48:26;;;;;;;7.23;2.50;;;6.80;99.90;;;;;;5071219;28;20436;-47
2022/01/05 01:50:54;;;;;;;5.47;2.10;;;6.80;99.90;;;;;;5071668;28;20437;-46
2022/01/05 01:53:21;;;;;;;6.20;1.83;;;6.80;99.90;;;;;;5071291;28;20455;-47
2022/01/05 01:55:49;;;;;;;8.07;2.30;;;6.80;99.90;;;;;;5071812;28;20431;-47
2022/01/05 01:58:17;;;;;;;6.60;2.20;;;6.80;99.90;;;;;;5070987;28;20923;-47
2022/01/05 02:00:43;;;;;;;9.03;2.57;;;6.80;99.90;;;;;;5071106;28;21000;-48
2022/01/05 02:03:12;;;;;;;4.40;2.27;;;6.80;99.90;;;;;;5071302;28;20434;-48
2022/01/05 02:05:39;;;;;;;5.53;1.70;;;6.80;99.90;;;;;;5071354;28;20444;-48
2022/01/05 02:08:07;;;;;;;14.10;2.07;;;6.70;99.90;;;;;;5070929;28;20432;-48
2022/01/05 02:10:33;;;;;;;7.37;1.70;;;6.90;99.90;;;;;;5071259;28;20428;-48
2022/01/05 02:13:00;;;;;;;9.00;2.03;;;6.90;99.90;;;;;;5071118;28;20514;-48
2022/01/05 02:15:27;;;;;;;6.53;2.00;;;6.90;99.90;;;;;;5071403;28;20532;-48
2022/01/05 02:18:07;;;;;;;7.57;1.77;;;6.90;99.90;;;;;;5070976;28;20859;-47
2022/01/05 02:20:34;;;;;;;9.70;2.10;;;6.90;99.90;;;;;;5071105;28;20457;-48
2022/01/05 02:23:03;;;;;;;8.13;1.83;;;6.70;99.90;;;;;;5071063;28;20458;-47
2022/01/05 02:25:30;;;;;;;10.40;2.00;;;6.90;99.90;;;;;;5052909;28;20952;-48
2022/01/05 02:27:57;;;;;;;4.87;1.90;;;6.90;99.90;;;;;;5070737;28;20455;-48
2022/01/05 02:30:26;;;;;;;3.50;1.87;;;6.90;99.90;;;;;;5071148;28;20432;-46
2022/01/05 02:32:53;;;;;;;5.10;1.83;;;6.70;99.90;;;;;;5071067;28;20917;-47
2022/01/05 02:35:19;;;;;;;9.30;2.07;;;6.90;99.90;;;;;;5071233;28;20434;-46
2022/01/05 02:37:49;;;;;;;3.57;1.47;;;6.90;99.90;;;;;;5070696;28;20836;-46
2022/01/05 02:40:19;;;;;;;9.20;2.03;;;6.90;99.90;;;;;;5074221;28;20476;-47
2022/01/05 02:42:46;;;;;;;6.33;2.30;;;6.90;99.90;;;;;;5075127;28;20980;-47
2022/01/05 02:45:14;;;;;;;8.17;2.00;;;6.90;99.90;;;;;;5075408;28;20435;-47
2022/01/05 02:47:42;;;;;;;5.13;1.70;;;6.90;99.90;;;;;;5075257;28;20813;-47
2022/01/05 02:50:10;;;;;;;5.90;2.37;;;6.90;99.90;;;;;;5075115;28;20406;-47
2022/01/05 02:52:37;;;;;;;8.43;2.37;;;6.90;99.90;;;;;;5074507;28;20436;-47
2022/01/05 02:55:06;;;;;;;5.20;2.37;;;6.90;99.90;;;;;;5074690;28;20924;-47
2022/01/05 02:57:34;;;;;;;4.67;1.90;;;6.90;99.90;;;;;;5074583;28;20426;-47
2022/01/05 03:00:01;;;;;;;4.23;1.90;;;6.90;99.90;;;;;;5074260;28;20480;-47
2022/01/05 03:02:27;;;;;;;4.40;1.83;;;6.90;99.90;;;;;;5074435;28;20432;-47
2022/01/05 03:04:54;;;;;;;9.30;2.20;;;6.90;99.90;;;;;;5074549;28;20455;-47
2022/01/05 03:07:20;;;;;;;4.37;2.10;;;7.00;99.90;;;;;;5074217;28;20440;-47
2022/01/05 03:09:47;;;;;;;8.00;2.00;;;7.00;99.90;;;;;;5073974;28;20439;-47
2022/01/05 03:12:14;;;;;;;6.53;1.70;;;6.80;99.90;;;;;;5074265;28;20799;-47
2022/01/05 03:14:42;;;;;;;6.57;1.90;;;7.00;99.90;;;;;;5074382;28;20844;-47
2022/01/05 03:17:09;;;;;;;6.00;1.90;;;7.00;99.90;;;;;;5074399;28;20441;-47
2022/01/05 03:19:35;;;;;;;6.57;1.67;;;7.00;99.90;;;;;;5073745;28;20458;-47
2022/01/05 03:22:02;;;;;;;8.10;1.60;;;6.90;99.90;;;;;;5074024;28;20406;-47
2022/01/05 03:24:29;;;;;;;10.30;1.60;;;6.90;99.90;;;;;;5073985;28;20460;-47
2022/01/05 03:26:56;;;;;;;6.80;1.70;;;6.90;99.90;;;;;;5073816;28;20430;-47
2022/01/05 03:29:22;;;;;;;2.47;1.30;;;6.90;99.90;;;;;;5074059;28;20436;-47
2022/01/05 03:31:50;;;;;;;6.03;2.13;;;6.90;99.90;;;;;;5074293;28;20435;-47
2022/01/05 03:34:19;;;;;;;4.70;1.90;;;6.80;99.90;;;;;;5073930;28;20442;-47
2022/01/05 03:36:46;;;;;;;9.20;2.20;;;6.80;99.90;;;;;;5073880;28;20433;-47
2022/01/05 03:39:13;;;;;;;8.20;2.27;;;6.80;99.90;;;;;;5073306;28;20618;-47
2022/01/05 03:41:39;;;;;;;11.33;1.83;;;6.70;99.90;;;;;;5073664;28;20424;-47
2022/01/05 03:44:06;;;;;;;6.57;2.03;;;6.70;99.90;;;;;;5073756;28;20455;-47
2022/01/05 03:46:33;;;;;;;5.70;2.07;;;6.70;99.90;;;;;;5055669;28;20452;-47
2022/01/05 03:49:01;;;;;;;5.00;1.77;;;6.70;99.90;;;;;;5073263;28;20928;-47
2022/01/05 03:51:28;;;;;;;7.53;2.40;;;6.70;99.90;;;;;;5072877;28;20824;-47
2022/01/05 03:53:54;;;;;;;5.50;2.70;;;6.70;99.90;;;;;;5073623;28;20983;-47
2022/01/05 03:56:21;;;;;;;3.87;1.73;;;6.70;99.90;;;;;;5073543;28;20419;-47
2022/01/05 03:58:48;;;;;;;11.20;2.60;;;6.70;99.90;;;;;;5073273;28;20440;-47
2022/01/05 04:01:14;;;;;;;7.90;2.10;;;6.70;99.90;;;;;;5055297;28;20830;-47
2022/01/05 04:03:41;;;;;;;5.87;2.00;;;6.70;99.90;;;;;;5073472;28;20431;-47
2022/01/05 04:06:09;;;;;;;6.50;2.20;;;6.70;99.90;;;;;;5074224;28;20436;-47
2022/01/05 04:08:35;;;;;;;6.60;1.97;;;6.70;99.90;;;;;;5075090;28;20432;-47
2022/01/05 04:11:02;;;;;;;8.47;1.93;;;6.70;99.90;;;;;;5073635;28;20418;-47
2022/01/05 04:13:29;;;;;;;6.93;1.93;;;6.70;99.90;;;;;;5073371;28;20459;-47
2022/01/05 04:15:56;;;;;;;6.83;2.50;;;6.70;99.90;;;;;;5056267;28;20449;-47
2022/01/05 04:18:22;;;;;;;9.80;1.77;;;6.80;99.90;;;;;;5074049;28;20437;-44
2022/01/05 04:20:49;;;;;;;6.53;1.70;;;6.80;99.90;;;;;;5073193;28;20475;-44
2022/01/05 04:23:17;;;;;;;9.63;2.73;;;6.70;99.90;;;;;;5073053;28;20451;-46
2022/01/05 04:25:43;;;;;;;7.50;1.97;;;6.80;99.90;;;;;;5073136;28;20758;-44
2022/01/05 04:28:10;;;;;;;4.60;1.63;;;6.80;99.90;;;;;;5072526;28;20929;-45
2022/01/05 04:30:36;;;;;;;5.93;2.07;;;6.80;99.90;;;;;;5072983;28;20440;-45
2022/01/05 04:33:03;;;;;;;10.03;2.30;;;6.80;99.90;;;;;;5072582;28;20472;-45
2022/01/05 04:35:30;;;;;;;8.77;1.90;;;6.80;99.90;;;;;;5072709;28;20441;-46
2022/01/05 04:37:56;;;;;;;6.30;2.07;;;6.80;99.90;;;;;;5072522;28;20441;-44
2022/01/05 04:40:24;;;;;;;8.47;2.10;;;6.80;99.90;;;;;;5072842;28;20475;-44
2022/01/05 04:42:51;;;;;;;5.73;3.10;;;6.80;99.90;;;;;;5072602;28;20815;-45
2022/01/05 04:45:18;;;;;;;6.80;2.10;;;6.80;99.90;;;;;;5072708;28;20967;-46
2022/01/05 04:47:45;;;;;;;14.60;2.43;;;6.80;99.90;;;;;;5072922;28;20449;-44
2022/01/05 04:50:15;;;;;;;6.80;2.67;;;6.80;99.90;;;;;;5072512;28;20447;-44
2022/01/05 04:52:41;;;;;;;5.93;1.70;;;6.80;99.90;;;;;;5072509;28;20428;-44
2022/01/05 04:55:09;;;;;;;8.17;2.17;;;6.70;99.90;;;;;;5072615;28;20470;-45
2022/01/05 04:57:36;;;;;;;4.93;1.70;;;6.70;99.90;;;;;;5072393;28;20428;-44
2022/01/05 05:00:04;;;;;;;5.67;1.70;;;6.70;99.90;;;;;;5072519;28;20491;-45
2022/01/05 05:02:31;;;;;;;6.40;1.53;;;6.70;99.90;;;;;;5071222;28;20435;-45
2022/01/05 05:04:57;;;;;;;4.43;2.03;;;6.60;99.90;;;;;;5072307;28;20522;-44
2022/01/05 05:07:24;;;;;;;3.10;1.20;;;6.60;99.90;;;;;;5072464;28;20850;-44
2022/01/05 05:09:51;;;;;;;9.20;2.47;;;6.60;99.90;;;;;;5071842;28;20507;-45
2022/01/05 05:12:17;;;;;;;5.10;2.00;;;6.50;99.90;;;;;;5072042;28;20432;-45
2022/01/05 05:14:45;;;;;;;5.10;2.07;;;6.50;99.90;;;;;;5072699;28;20437;-45
2022/01/05 05:17:12;;;;;;;5.70;2.27;;;6.50;99.90;;;;;;5072198;28;20491;-44
2022/01/05 05:19:38;;;;;;;11.00;3.10;;;6.40;99.90;;;;;;5071581;28;20432;-44
2022/01/05 05:22:05;;;;;;;7.87;2.27;;;6.50;99.90;;;;;;5071857;28;20438;-46
2022/01/05 05:24:32;;;;;;;7.27;2.40;;;6.50;99.90;;;;;;5072364;28;20466;-44
2022/01/05 05:26:58;;;;;;;8.63;2.07;;;6.40;99.90;;;;;;5072341;28;20428;-44
2022/01/05 05:29:25;;;;;;;5.13;1.73;;;6.40;99.90;;;;;;5074980;28;20794;-48
2022/01/05 05:31:53;;;;;;;4.77;2.30;;;6.40;99.90;;;;;;5072038;28;20474;-45
2022/01/05 05:34:19;;;;;;;5.97;1.80;;;6.40;99.90;;;;;;5056899;28;20494;-48
2022/01/05 05:36:46;;;;;;;5.70;2.10;;;6.30;99.90;;;;;;5075833;28;20426;-48
2022/01/05 05:39:13;;;;;;;5.33;2.13;;;6.30;99.90;;;;;;5075275;28;20440;-49
2022/01/05 05:41:39;;;;;;;10.00;2.40;;;6.30;99.90;;;;;;5075771;28;20870;-49
2022/01/05 05:44:06;;;;;;;6.50;1.90;;;6.30;99.90;;;;;;5076275;28;20457;-51
2022/01/05 05:46:33;;;;;;;8.03;1.73;;;6.30;99.90;;;;;;5075769;28;20450;-48
2022/01/05 05:49:01;;;;;;;7.50;2.57;;;6.20;99.90;;;;;;5076283;28;20432;-47
2022/01/05 05:51:28;;;;;;;6.03;2.20;;;6.20;99.90;;;;;;5076218;28;20446;-47
2022/01/05 05:53:55;;;;;;;10.90;2.37;;;6.20;99.90;;;;;;5075211;28;20438;-48
2022/01/05 05:56:21;;;;;;;6.37;2.87;;;6.20;99.90;;;;;;5076449;28;20418;-48
2022/01/05 05:58:48;;;;;;;12.20;3.10;;;6.20;99.90;;;;;;5075885;28;20416;-47
2022/01/05 06:01:14;;;;;;;3.77;1.83;;;6.20;99.90;;;;;;5074986;28;20837;-47
2022/01/05 06:03:41;;;;;;;7.13;2.53;;;6.10;99.90;;;;;;5077113;28;20455;-46
2022/01/05 06:06:09;;;;;;;7.40;1.80;;;6.10;99.90;;;;;;5076620;28;20534;-48
2022/01/05 06:08:36;;;;;;;7.00;2.40;;;6.10;99.90;;;;;;5076892;28;20439;-47
2022/01/05 06:11:02;;;;;;;6.57;2.67;;;6.10;99.90;;;;;;5076757;28;20440;-48
2022/01/05 06:13:29;;;;;;;11.07;3.17;;;6.00;99.90;;;;;;5075320;28;20605;-48
2022/01/05 06:15:56;;;;;;;8.10;2.63;;;6.00;99.90;;;;;;5076255;28;20435;-48
2022/01/05 06:18:22;;;;;;;8.97;2.23;;;6.00;99.90;;;;;;5075796;28;20414;-47
2022/01/05 06:20:49;;;;;;;8.00;2.23;;;6.00;99.90;;;;;;5076118;28;20494;-47
2022/01/05 06:23:17;;;;;;;6.13;2.00;;;6.00;99.90;;;;;;5075125;28;20860;-50
2022/01/05 06:25:44;;;;;;;11.77;2.10;;;6.10;99.90;;;;;;5075705;28;20439;-48
2022/01/05 06:28:11;;;;;;;12.23;2.30;;;6.00;99.90;;;;;;5074988;28;20424;-48
2022/01/05 06:30:38;;;;;;;9.17;3.20;;;6.10;99.90;;;;;;5075886;28;20435;-48
2022/01/05 06:33:05;;;;;;;6.63;2.50;;;6.10;99.90;;;;;;5074860;28;20463;-48
2022/01/05 06:35:32;;;;;;;8.63;2.97;;;6.10;99.90;;;;;;5074707;28;20469;-48
2022/01/05 06:37:59;;;;;;;9.73;2.87;;;6.10;99.90;;;;;;5074974;28;20501;-48
2022/01/05 06:40:27;;;;;;;7.33;2.60;;;6.00;99.90;;;;;;5076135;28;20457;-49
2022/01/05 06:42:54;;;;;;;9.93;2.80;;;6.00;99.90;;;;;;5075171;28;20459;-50
2022/01/05 06:45:21;;;;;;;8.63;2.53;;;6.00;99.90;;;;;;5074646;28;20472;-49
2022/01/05 06:47:48;;;;;;;12.90;3.93;;;6.00;99.90;;;;;;5074265;28;20435;-48
2022/01/05 06:50:14;;;;;;;10.47;2.20;;;5.90;99.90;;;;;;5075497;28;20437;-50
2022/01/05 06:52:41;;;;;;;8.43;3.23;;;6.00;99.90;;;;;;5074190;28;20411;-48
2022/01/05 06:55:10;;;;;;;15.27;4.20;;;6.00;99.90;;;;;;5075398;28;20443;-48
2022/01/05 06:57:40;;;;;;;10.90;4.10;;;6.00;99.90;;;;;;5074873;28;20412;-48
2022/01/05 07:00:08;;;;;;;10.90;3.93;;;6.00;99.90;;;;;;5074814;28;20414;-47
2022/01/05 07:02:35;;;;;;;11.70;3.40;;;6.00;99.90;;;;;;5075742;28;20454;-48
2022/01/05 07:05:01;;;;;;;12.37;3.43;;;5.90;99.90;;;;;;5075788;28;20438;-48
2022/01/05 07:07:28;;;;;;;10.87;3.40;;;5.90;99.90;;;;;;5075940;28;20459;-49
2022/01/05 07:09:55;;;;;;;19.03;4.50;;;5.90;99.90;;;;;;5075743;28;20443;-49
2022/01/05 07:12:22;;;;;;;11.40;4.10;;;5.80;99.90;;;;;;5075689;28;20435;-49
2022/01/05 07:14:50;;;;;;;11.93;3.27;;;5.80;99.90;;;;;;5076266;28;20838;-48
2022/01/05 07:17:17;;;;;;;9.60;3.47;;;5.80;99.90;;;;;;5075746;28;20416;-49
2022/01/05 07:19:43;;;;;;;9.60;3.90;;;5.90;99.90;;;;;;5075665;28;20920;-48
2022/01/05 07:22:10;;;;;;;10.83;4.03;;;5.80;99.90;;;;;;5075168;28;20448;-47
2022/01/05 07:24:36;;;;;;;9.47;3.40;;;5.90;99.90;;;;;;5076574;28;20433;-48
2022/01/05 07:27:03;;;;;;;7.47;3.03;;;5.90;99.90;;;;;;5078184;28;20435;-48
2022/01/05 07:29:30;;;;;;;9.77;3.70;;;5.90;99.90;;;;;;5079681;28;20442;-47
2022/01/05 07:31:58;;;;;;;10.27;2.90;;;5.90;99.90;;;;;;5079877;28;20410;-48
2022/01/05 07:34:24;;;;;;;9.73;3.37;;;5.90;99.90;;;;;;5079630;28;20441;-49
2022/01/05 07:36:51;;;;;;;13.47;4.70;;;5.90;99.90;;;;;;5079692;28;20983;-48
2022/01/05 07:39:18;;;;;;;10.17;3.27;;;5.90;99.90;;;;;;5079939;28;20438;-48
2022/01/05 07:41:44;;;;;;;16.50;3.77;;;5.90;99.90;;;;;;5078688;28;20477;-49
2022/01/05 07:44:11;;;;;;;12.40;4.10;;;5.90;99.90;;;;;;5078357;28;20451;-48
2022/01/05 07:46:37;;;;;;;8.33;3.00;;;5.90;99.90;;;;;;5076948;28;20417;-48
2022/01/05 07:49:06;;;;;;;15.40;3.47;;;5.90;99.90;;;;;;5078840;28;20445;-49
2022/01/05 07:51:33;;;;;;;8.50;4.10;;;5.90;99.90;;;;;;5079568;28;20572;-49
2022/01/05 07:54:00;;;;;;;13.03;4.00;;;5.90;99.90;;;;;;5079508;28;20452;-48
2022/01/05 07:56:28;;;;;;;13.67;3.40;;;5.80;99.90;;;;;;5077930;28;20427;-48
2022/01/05 07:58:54;;;;;;;13.03;3.20;;;5.80;99.90;;;;;;5077838;28;20969;-48
2022/01/05 08:01:21;;;;;;;12.07;3.40;;;5.80;99.90;;;;;;5077270;28;20506;-48
2022/01/05 08:03:48;;;;;;;8.13;3.20;;;5.80;99.90;;;;;;5059246;28;20471;-50
2022/01/05 08:06:17;;;;;;;11.27;3.20;;;5.80;99.90;;;;;;5077047;28;20417;-48
2022/01/05 08:08:44;;;;;;;11.33;2.90;;;5.80;99.90;;;;;;5077980;28;20927;-48
2022/01/05 08:11:11;;;;;;;12.83;3.43;;;5.80;99.90;;;;;;5079014;28;20436;-47
2022/01/05 08:13:37;;;;;;;13.87;4.10;;;5.80;99.90;;;;;;5077846;28;20958;-47
2022/01/05 08:16:04;;;;;;;14.10;3.27;;;5.80;99.90;;;;;;5078311;28;20541;-49
2022/01/05 08:18:31;;;;;;;8.13;3.80;;;5.80;99.90;;;;;;5076740;28;20415;-47
2022/01/05 08:20:58;;;;;;;9.47;2.80;;;5.80;99.90;;;;;;5078612;28;20975;-48
2022/01/05 08:23:27;;;;;;;11.10;3.77;;;5.80;99.90;;;;;;5078003;28;20529;-48
2022/01/05 08:25:54;;;;;;;12.03;3.40;;;5.80;99.90;;;;;;5077427;28;20447;-47
2022/01/05 08:28:21;;;;;;;18.67;3.73;;;5.70;99.90;;;;;;5077788;28;20443;-47
2022/01/05 08:30:48;;;;;;;10.00;2.50;;;5.70;99.90;;;;;;5078254;28;20424;-47
2022/01/05 08:33:16;;;;;;;11.87;3.17;;;5.70;99.90;;;;;;5077474;28;20576;-49
2022/01/05 08:35:44;;;;;;;15.10;3.20;;;5.70;99.90;;;;;;5059476;28;20525;-49
2022/01/05 08:38:12;;;;;;;12.83;3.20;;;5.70;99.90;;;;;;5077884;28;20431;-48
2022/01/05 08:40:40;;;;;;;12.00;3.80;;;5.60;99.90;;;;;;5076878;28;20416;-49
2022/01/05 08:43:08;;;;;;;11.90;3.30;;;5.60;99.90;;;;;;5076192;28;20814;-50
2022/01/05 08:45:35;;;;;;;20.00;4.37;;;5.60;99.90;;;;;;5075794;28;20432;-49
2022/01/05 08:48:02;;;;;;;11.73;3.87;;;5.60;99.90;;;;;;5075685;28;20409;-48
2022/01/05 08:50:31;;;;;;;14.77;3.70;;;5.60;99.90;;;;;;5077063;28;20436;-48
2022/01/05 08:52:58;;;;;;;17.63;7.70;;;5.60;99.90;;;;;;5076505;28;20429;-48
2022/01/05 08:55:28;;;;;;;10.47;3.20;;;5.60;99.90;;;;;;5077048;28;20449;-48
2022/01/05 08:57:57;;;;;;;14.50;3.50;;;5.60;99.90;;;;;;5077494;28;20431;-48
2022/01/05 09:00:24;;;;;;;12.33;3.97;;;5.60;99.90;;;;;;5078301;28;20429;-48
2022/01/05 09:02:51;;;;;;;12.43;3.37;;;5.60;99.90;;;;;;5077034;28;21067;-48
2022/01/05 09:05:18;;;;;;;8.70;2.60;;;5.70;99.90;;;;;;5077661;28;20434;-48
2022/01/05 09:07:45;;;;;;;7.80;2.60;;;5.50;99.90;;;;;;5077179;28;20492;-47
2022/01/05 09:10:11;;;;;;;13.33;3.33;;;5.70;99.90;;;;;;5077092;28;20436;-48
2022/01/05 09:12:38;;;;;;;12.03;3.80;;;5.70;99.90;;;;;;5077563;28;20436;-49
2022/01/05 09:15:07;;;;;;;8.10;3.20;;;5.80;99.90;;;;;;5077685;28;20420;-47
2022/01/05 09:17:33;;;;;;;10.40;3.43;;;5.80;99.90;;;;;;5077216;28;20418;-48
2022/01/05 09:20:00;;;;;;;5.30;3.20;;;5.80;99.90;;;;;;5059577;28;20425;-48
2022/01/05 09:22:27;;;;;;;13.60;4.53;;;5.80;99.90;;;;;;5077537;28;20490;-48
2022/01/05 09:24:53;;;;;;;10.53;3.43;;;5.80;99.90;;;;;;5077186;28;20774;-49
2022/01/05 09:27:21;;;;;;;11.40;3.10;;;5.80;99.90;;;;;;5076866;28;20417;-49
2022/01/05 09:29:48;;;;;;;10.40;3.60;;;5.90;99.90;;;;;;5076797;28;20453;-49
2022/01/05 09:32:17;;;;;;;12.00;3.33;;;6.00;99.90;;;;;;5076680;28;20558;-48
2022/01/05 09:34:44;;;;;;;10.50;3.47;;;6.00;99.90;;;;;;5075932;28;20474;-48
2022/01/05 09:37:17;;;;;;;11.70;3.70;;;6.10;99.90;;;;;;5076131;28;20409;-49
2022/01/05 09:42:30;;;;;;;12.80;3.50;;;6.30;99.90;;;;;;5077450;28;20505;-49
2022/01/05 09:44:58;;;;;;;14.13;4.50;;;6.20;99.90;;;;;;5077065;28;20444;-50
2022/01/05 09:47:54;;;;;;;12.97;3.10;;;6.50;99.90;;;;;;5076269;28;20425;-49
2022/01/05 09:50:24;;;;;;;14.97;3.03;;;6.60;99.90;;;;;;5067460;28;20430;-48
2022/01/05 09:52:51;;;;;;;12.80;3.97;;;6.60;99.90;;;;;;5077651;28;20422;-49
2022/01/05 09:55:18;;;;;;;12.17;4.10;;;6.60;99.90;;;;;;5059333;28;20493;-49
2022/01/05 09:57:47;;;;;;;11.53;3.03;;;6.70;99.90;;;;;;5058691;28;20454;-48
2022/01/05 10:00:16;;;;;;;8.50;2.50;;;6.70;99.90;;;;;;5058524;28;20431;-47
2022/01/05 10:02:45;;;;;;;11.57;3.20;;;6.60;99.90;;;;;;5076128;28;20522;-47
2022/01/05 10:05:13;;;;;;;9.13;3.10;;;6.60;99.90;;;;;;5077663;28;20506;-48
2022/01/05 10:07:42;;;;;;;14.37;4.60;;;6.60;99.90;;;;;;5077042;28;20926;-47
2022/01/05 10:10:10;;;;;;;15.93;3.20;;;6.60;99.90;;;;;;5076838;28;20410;-49
2022/01/05 10:12:37;;;;;;;12.70;4.37;;;6.60;99.90;;;;;;5058875;28;20486;-49
2022/01/05 10:15:04;;;;;;;15.03;4.50;;;6.60;99.90;;;;;;5077385;28;20779;-49
2022/01/05 10:17:33;;;;;;;7.27;3.10;;;6.70;99.90;;;;;;5076670;28;20418;-48
2022/01/05 10:20:04;;;;;;;7.63;2.80;;;6.70;99.90;;;;;;5076444;28;20451;-47
2022/01/05 10:22:33;;;;;;;8.83;2.90;;;6.80;99.90;;;;;;5076651;28;20466;-49
2022/01/05 10:25:03;;;;;;;13.60;3.70;;;6.90;99.90;;;;;;5076165;28;20398;-48
2022/01/05 10:27:30;;;;;;;10.57;3.03;;;7.00;99.90;;;;;;5077070;28;20466;-48
2022/01/05 10:29:59;;;;;;;9.60;3.30;;;7.00;99.90;;;;;;5075118;28;20432;-48
2022/01/05 10:32:27;;;;;;;8.80;3.10;;;7.10;99.90;;;;;;5075742;28;20433;-50
2022/01/05 10:35:02;;;;;;;10.30;3.53;;;7.10;99.90;;;;;;5076072;28;20520;-49
2022/01/05 10:37:29;;;;;;;10.77;3.10;;;7.10;99.90;;;;;;5076025;28;20414;-49
2022/01/05 10:40:10;;;;;;;11.20;3.53;;;7.10;99.90;;;;;;5075539;28;20442;-48
2022/01/05 10:42:39;;;;;;;8.87;3.47;;;7.20;99.90;;;;;;5075327;28;20483;-48
2022/01/05 10:45:08;;;;;;;13.83;5.17;;;7.20;99.90;;;;;;5075681;28;20737;-49
2022/01/05 10:47:35;;;;;;;12.40;3.20;;;7.20;99.90;;;;;;5076070;28;20413;-49
2022/01/05 10:50:11;;;;;;;11.70;3.90;;;7.20;99.90;;;;;;5076184;28;20437;-48
2022/01/05 10:52:38;;;;;;;7.50;3.00;;;7.30;99.90;;;;;;5075431;28;20932;-48
2022/01/05 10:55:13;;;;;;;9.63;3.10;;;7.30;99.90;;;;;;5075532;28;20443;-48
2022/01/05 10:57:55;;;;;;;10.10;2.90;;;7.30;99.90;;;;;;5057550;28;20459;-48
2022/01/05 11:00:39;;;;;;;13.97;3.13;;;7.30;99.90;;;;;;5077665;28;20970;-48
2022/01/05 11:03:22;;;;;;;7.80;3.23;;;7.40;99.90;;;;;;5079524;28;20888;-48
2022/01/05 11:06:02;;;;;;;13.40;3.90;;;7.40;99.90;;;;;;5079332;28;20433;-48
2022/01/05 11:08:30;;;;;;;11.23;3.23;;;7.20;99.90;;;;;;5079334;28;20443;-50
2022/01/05 11:10:58;;;;;;;9.17;2.80;;;7.30;99.90;;;;;;5079203;28;20777;-46
2022/01/05 11:13:27;;;;;;;11.43;3.13;;;7.40;99.90;;;;;;5079201;28;20451;-48
2022/01/05 11:15:57;;;;;;;10.97;3.70;;;7.40;99.90;;;;;;5079249;28;20437;-48
2022/01/05 11:18:24;;;;;;;8.73;3.20;;;7.50;99.90;;;;;;5078620;28;21040;-49
2022/01/05 11:20:55;;;;;;;14.30;3.30;;;7.50;99.90;;;;;;5079079;28;20835;-49
2022/01/05 11:23:24;;;;;;;16.43;3.93;;;7.60;99.90;;;;;;5079425;28;20460;-48
2022/01/05 11:25:51;;;;;;;9.70;2.90;;;7.60;99.90;;;;;;5078388;28;20476;-50
2022/01/05 11:28:22;;;;;;;9.77;3.33;;;7.60;99.90;;;;;;5078806;28;20556;-47
2022/01/05 11:30:50;;;;;;;7.10;2.90;;;7.60;99.90;;;;;;5079394;28;20915;-49
2022/01/05 11:33:17;;;;;;;12.83;4.20;;;7.70;99.90;;;;;;5078506;28;20469;-47
2022/01/05 11:35:44;;;;;;;13.90;3.80;;;7.70;99.90;;;;;;5055818;28;20456;-47
2022/01/05 11:38:13;;;;;;;7.90;3.40;;;7.70;99.90;;;;;;5073344;28;20420;-48
2022/01/05 11:40:46;;;;;;;11.00;4.03;;;7.70;99.90;;;;;;5074005;28;20428;-48
2022/01/05 11:43:15;;;;;;;9.90;3.27;;;7.80;99.90;;;;;;5073824;28;20583;-48
2022/01/05 11:45:47;;;;;;;12.70;3.07;;;7.70;99.90;;;;;;5074257;28;20404;-48
2022/01/05 11:48:22;;;;;;;7.83;3.33;;;7.70;99.90;;;;;;5073641;28;20411;-46
2022/01/05 11:50:51;;;;;;;11.60;2.60;;;7.70;99.80;;;;;;5073932;28;20433;-48
2022/01/05 11:53:34;;;;;;;11.83;3.63;;;7.70;99.70;;;;;;5073328;28;20945;-47
2022/01/05 11:56:07;;;;;;;10.17;3.07;;;7.40;99.70;;;;;;5074097;28;20432;-47
2022/01/05 11:58:35;;;;;;;10.40;3.80;;;7.70;99.80;;;;;;5073256;28;20838;-47
2022/01/05 12:01:26;;;;;;;14.27;4.10;;;7.40;99.40;;;;;;5073676;28;20443;-47
2022/01/05 12:04:09;;;;;;;10.60;2.97;;;7.60;99.70;;;;;;5073598;28;21028;-48
2022/01/05 12:07:03;;;;;;;8.03;3.20;;;7.60;99.80;;;;;;5073562;28;20436;-47
2022/01/05 12:09:32;;;;;;;13.07;3.53;;;7.60;99.60;;;;;;5073357;28;20520;-48
2022/01/05 12:12:03;;;;;;;6.90;3.40;;;7.50;99.80;;;;;;5074980;28;20440;-47
2022/01/05 12:14:46;;;;;;;10.97;3.63;;;7.70;99.90;;;;;;5067286;28;20532;-47
2022/01/05 12:17:15;;;;;;;8.87;4.00;;;7.60;99.70;;;;;;5058479;28;20978;-47
2022/01/05 12:20:20;;;;;;;12.30;4.80;;;7.60;99.80;;;;;;5069666;28;20433;-47
2022/01/05 12:22:47;;;;;;;8.30;3.60;;;7.90;99.20;;;;;;5064882;28;20696;-47
2022/01/05 12:25:17;;;;;;;11.20;4.00;;;7.80;99.20;;;;;;5057695;28;20918;-47
2022/01/05 12:28:02;;;;;;;10.83;3.53;;;7.70;99.30;;;;;;5072936;28;20449;-47
2022/01/05 12:30:40;;;;;;;11.90;3.63;;;7.70;99.30;;;;;;5073285;28;20439;-46
2022/01/05 12:33:14;;;;;;;14.93;3.30;;;7.70;99.60;;;;;;5072930;28;20993;-48
2022/01/05 12:35:54;;;;;;;11.67;3.73;;;7.70;99.70;;;;;;5072734;28;20708;-48
2022/01/05 12:38:49;;;;;;;7.57;3.20;;;7.60;99.40;;;;;;5072400;28;20520;-46
2022/01/05 12:41:36;;;;;;;10.63;3.87;;;7.60;99.40;;;;;;5054751;28;20527;-47
2022/01/05 12:44:34;;;;;;;9.63;3.67;;;7.60;99.50;;;;;;5072828;28;20523;-47
2022/01/05 12:47:01;;;;;;;9.10;4.00;;;7.50;99.30;;;;;;5072348;28;20456;-47
2022/01/05 12:49:32;;;;;;;10.63;3.50;;;7.50;99.50;;;;;;5072712;28;20287;-47
2022/01/05 12:52:08;;;;;;;10.13;3.67;;;7.40;99.50;;;;;;5072233;28;20960;-47
2022/01/05 12:54:43;;;;;;;14.67;3.30;;;7.40;99.70;;;;;;5072739;28;20445;-48
2022/01/05 12:57:15;;;;;;;11.80;2.80;;;7.40;99.60;;;;;;5072295;28;20434;-47
2022/01/05 12:59:46;;;;;;;7.43;3.13;;;7.40;99.70;;;;;;5071551;28;20459;-47
2022/01/05 13:02:18;;;;;;;5.60;2.60;;;7.40;99.80;;;;;;5071574;28;20495;-48